Steptoe Valley North, Nevada Weather observations

Data are for 10 minute period ending at time listed.
 Day   Time   Solar   Ave.   Ave.  Ave.  Vector  Max.   Baro.   Total    
  of    of     Rad.   Air    Rel.  Wind   Wind   Wind  Press.  Precip.   
Year   Day            Temp.  Hum.  Speed  Dir.   Gust                    
2016   (PST)  Kw/m2    F      %     mph   deg.    mph    mb.     in.     
-------------------------------------------------------------------------
 267   14:00   0.32   48.1    70    8.5   199    12.6   820.2    0.00 
 267   14:10   0.86   51.1    62    7.1   210    13.1   820.1    0.00 
 267   14:20   0.58   52.2    57    3.2   244     8.0   820.2    0.00 
 267   14:30   0.31   51.5    59    2.5   200     5.2   820.4    0.00 
 267   14:40   0.25   51.7    59    4.9   178     6.7   820.5    0.00 
 267   14:50   0.44   52.0    59    4.8   208     9.1   820.5    0.00 
 267   15:00   0.41   53.1    55    6.0   217    12.8   820.5    0.00 
 267   15:10   0.17   51.4    58    7.9   169    13.7   820.5    0.00 
 267   15:20   0.17   50.9    55    3.5   142     8.0   820.5    0.00 
 267   15:30   0.40   52.8    54    4.9   178     8.8   820.6    0.00 
 267   15:40   0.52   54.8    51    6.5   151    12.9   820.6    0.00 
 267   15:50   0.46   55.9    50    7.6   176    13.5   820.8    0.00 
 267   16:00   0.43   55.9    48    7.3   226    15.1   820.9    0.00 
 267   16:10   0.37   55.1    49    6.6   280    15.6   821.0    0.00 
 267   16:20   0.25   53.8    50    8.7   287    18.0   821.1    0.00 
 267   16:30   0.25   53.6    50   11.7   263    20.8   821.2    0.00 
 267   16:40   0.20   53.2    49   11.7   272    17.8   821.2    0.00 
 267   16:50   0.06   51.4    52   10.6   256    18.9   821.2    0.00 
 267   17:00   0.11   51.4    55    5.6   252    12.1   821.3    0.00 
 267   17:10   0.03   50.7    54    5.9   237    11.4   821.3    0.00 
 267   17:20   0.01   49.2    59    4.5   246     8.1   821.3    0.00 
 267   17:30   0.01   48.1    59    6.5   231     9.1   821.2    0.00 
 267   17:40   0.01   47.0    60    5.3   218     8.0   821.1    0.00 
 267   17:50   0.00   45.6    63    4.9   183     6.5   821.0    0.00 
 267   18:00   0.00   44.4    66    5.8   196     8.5   821.0    0.00 
 267   18:10   0.00   44.9    66    3.6   238     6.5   821.2    0.00 
 267   18:20   0.00   44.6    65    4.9   184     8.7   821.2    0.00 
 267   18:30   0.00   43.2    68    3.7    65     7.4   821.2    0.00 
 267   18:40   0.00   42.6    69    2.9   132     6.4   821.4    0.00 
 267   18:50   0.00   44.3    64    6.4   130    10.7   821.3    0.00 
 267   19:00   0.00   46.0    58    3.4    24     9.3   821.4    0.00 
 267   19:10   0.00   44.5    61    4.6   198     8.3   821.3    0.00 
 267   19:20   0.00   42.0    68    5.5   142     7.8   821.4    0.00 
 267   19:30   0.00   42.0    70    5.7   112     8.1   821.6    0.00 
 267   19:40   0.00   42.9    68    6.0   131    10.1   821.6    0.00 
 267   19:50   0.00   43.5    68    7.5   176    11.0   821.6    0.00 
 267   20:00   0.00   44.2    67    7.8   169    11.0   821.7    0.00 
 267   20:10   0.00   44.9    65    8.0   171    11.3   821.8    0.00 
 267   20:20   0.00   45.7    62    5.8   177    10.3   821.9    0.00 
 267   20:30   0.00   46.3    60    6.9   170    13.5   821.8    0.00 
 267   20:40   0.00   47.9    53    3.6   141     9.7   821.8    0.00 
 267   20:50   0.00   46.8    58    3.7    68     6.8   821.8    0.00 
 267   21:00   0.00   45.5    63    4.6    43     7.3   821.8    0.00 
 267   21:10   0.00   44.8    67    5.1    64     6.7   821.8    0.00 
 267   21:20   0.00   46.4    59    3.5   116     6.9   821.8    0.00 
 267   21:30   0.00   46.5    60    4.5   161     8.0   821.7    0.00 
 267   21:40   0.00   46.7    57    4.8   161    10.7   821.7    0.00 
 267   21:50   0.00   46.9    57    8.5   164    13.4   821.7    0.00 
 267   22:00   0.00   46.6    59    7.3   165    10.7   821.6    0.00 
 267   22:10   0.00   46.1    60    6.1   186     8.4   821.7    0.00 
 267   22:20   0.00   46.1    58    5.0   205     7.7   821.8    0.00 
 267   22:30   0.00   47.5    51    5.0   164     8.0   822.0    0.00 
 267   22:40   0.00   47.1    53    5.1   101     8.4   822.0    0.00 
 267   22:50   0.00   46.2    59    5.2    99     8.9   822.2    0.00 
 267   23:00   0.00   46.1    58    8.7   128    12.7   822.2    0.00 
 267   23:10   0.00   47.4    51    5.3    96    10.0   822.3    0.00 
 267   23:20   0.00   46.7    54    6.3   108     9.3   822.4    0.00 
 267   23:30   0.00   47.0    53    6.0   125    11.0   822.4    0.00 
 267   23:40   0.00   47.1    53    6.0   133     9.7   822.5    0.00 
 267   23:50   0.00   46.5    55    3.7   174    11.0   822.5    0.00 
 268    0:00   0.00   46.6    54    8.4   154    12.1   822.5    0.00 
 268    0:10   0.00   46.4    56    5.5   144     9.3   822.7    0.00 
 268    0:20   0.00   46.0    57    2.0   313     5.9   822.9    0.00 
 268    0:30   0.00   46.0    57    3.1    72     6.4   822.9    0.00 
 268    0:40   0.00   45.9    58    1.6   139     7.7   823.0    0.00 
 268    0:50   0.00   45.5    60    5.2    93     7.2   823.1    0.00 
 268    1:00   0.00   45.2    63    1.3   118     4.8   823.1    0.00 
 268    1:10   0.00   45.3    62    2.4   117     8.4   823.1    0.00 
 268    1:20   0.00   45.8    60    8.2   158    11.7   823.1    0.00 
 268    1:30   0.00   46.0    60    7.7   173    12.0   823.2    0.00 
 268    1:40   0.00   46.0    59    8.0   166    11.4   823.3    0.00 
 268    1:50   0.00   45.6    61    6.8   150     9.9   823.4    0.00 
 268    2:00   0.00   44.7    62    5.1   161     8.1   823.6    0.00 
 268    2:10   0.00   44.5    62    7.2   163    10.9   823.7    0.00 
 268    2:20   0.00   44.4    62    7.0   173    10.0   823.8    0.00 
 268    2:30   0.00   44.2    63    8.1   170    10.9   823.7    0.00 
 268    2:40   0.00   44.3    62    7.3   173    13.2   823.9    0.00 
 268    2:50   0.00   44.5    63    7.8   175    10.7   823.9    0.00 
 268    3:00   0.00   43.4    64    4.9   185     6.8   824.1    0.00 
 268    3:10   0.00   41.2    70    4.6   191     7.7   824.1    0.00 
 268    3:20   0.00   40.8    70    4.5   196     7.3   824.2    0.00 
 268    3:30   0.00   40.7    72    6.9   178     9.9   824.3    0.00 
 268    3:40   0.00   40.8    72    4.8   166     6.7   824.4    0.00 
 268    3:50   0.00   39.4    75    5.8   174     7.4   824.5    0.00 
 268    4:00   0.00   40.5    72    2.9   208     5.4   824.6    0.00 
 268    4:10   0.00   40.6    72    5.9   177    10.7   824.6    0.00 
 268    4:20   0.00   41.8    71    7.5   172    10.7   824.8    0.00 
 268    4:30   0.00   42.2    70    7.2   185    13.7   824.9    0.00 
 268    4:40   0.00   42.9    69    8.3   177    13.9   824.9    0.00 
 268    4:50   0.00   42.0    70    3.1   246     6.0   825.0    0.00 
 268    5:00   0.00   41.3    70    3.6   337    10.2   825.1    0.00 
 268    5:10   0.00   42.3    69    4.3   277     9.4   825.3    0.00 
 268    5:20   0.00   41.3    70    1.3     5     3.1   825.4    0.00 
 268    5:30   0.00   41.6    70    2.5    76     4.5   825.6    0.00 
 268    5:40   0.01   42.8    67    1.0    64     2.9   825.8    0.00 
 268    5:50   0.04   43.4    66    1.8   149     4.2   826.0    0.00 
 268    6:00   0.07   42.4    68    1.1    82     3.4   826.0    0.00 
 268    6:10   0.11   43.5    70    2.6   191     6.3   826.2    0.00 
 268    6:20   0.14   47.4    62    1.4   211     3.2   826.5    0.00 
 268    6:30   0.17   48.5    61    3.0   184     4.7   826.5    0.00 
 268    6:40   0.21   50.0    60    4.2   182     6.6   826.5    0.00 
 268    6:50   0.24   50.7    58    1.9   196     4.3   826.6    0.00 
 268    7:00   0.28   48.4    64    2.4   270     7.3   826.6    0.00 
 268    7:10   0.32   48.4    62    3.4   256    10.0   826.5    0.00 
 268    7:20   0.36   48.9    64    4.7   225    10.2   826.4    0.00 
 268    7:30   0.40   50.0    61    6.5   221     9.4   826.3    0.00 
 268    7:40   0.43   50.5    62    7.2   213     9.3   826.3    0.00 
 268    7:50   0.47   50.4    63    6.6   228     8.9   826.4    0.00 
 268    8:00   0.51   50.8    60    6.5   226     8.0   826.5    0.00 
 268    8:10   0.55   52.3    58    5.7   198     7.7   826.4    0.00 
 268    8:20   0.58   53.5    54    5.4   151     8.8   826.6    0.00 
 268    8:30   0.61   54.4    51    3.0   154     6.3   826.7    0.00 
 268    8:40   0.65   54.4    50    3.9   136     7.1   826.9    0.00 
 268    8:50   0.68   54.8    49    2.9   129     7.5   827.0    0.00 
 268    9:00   0.71   54.9    49    2.1   110     5.6   827.1    0.00 
 268    9:10   0.73   56.8    46    2.4   219     5.9   827.2    0.00 
 268    9:20   0.76   55.6    49    1.9   311     4.1   827.3    0.00 
 268    9:30   0.78   55.5    50    1.7   340     3.9   827.4    0.00 
 268    9:40   0.80   57.4    47    1.2   203     3.3   827.5    0.00 
 268    9:50   0.82   57.2    48    2.4    17     6.0   827.6    0.00 
 268   10:00   0.84   56.1    51    3.2    13     5.6   827.7    0.00 
 268   10:10   0.85   56.5    47    2.1   133     6.3   827.7    0.00 
 268   10:20   0.87   58.6    45    1.7   112     3.8   827.7    0.00 
 268   10:30   0.88   59.3    43    1.8    93     4.0   827.7    0.00 
 268   10:40   0.89   57.8    48    3.7    40     6.5   827.7    0.00 
 268   10:50   0.90   57.3    48    2.5    59     6.1   827.7    0.00 
 268   11:00   0.91   58.3    47    2.4    72     5.0   827.7    0.00 
 268   11:10   0.92   58.7    45    3.5    20     7.4   827.6    0.00 
 268   11:20   0.92   58.9    44    2.1   264     5.8   827.6    0.00 
 268   11:30   0.92   60.0    42    2.2   226     6.8   827.6    0.00 
 268   11:40   0.92   60.2    40    1.7   250     7.0   827.7    0.00 
 268   11:50   0.91   60.3    38    4.5    47     7.9   827.7    0.00 
 268   12:00   0.91   59.8    38    4.4    33     7.9   827.7    0.00 
 268   12:10   0.90   59.9    38    5.4    24    10.1   827.5    0.00 
 268   12:20   0.89   59.8    38    5.6    32     9.3   827.5    0.00 
 268   12:30   0.89   60.4    35    3.3    45     8.0   827.5    0.00 
 268   12:40   0.87   60.7    36    4.9    16     9.3   827.5    0.00 
 268   12:50   0.86   60.9    37    4.2     5     9.6   827.6    0.00 
 268   13:00   0.84   60.9    36    4.9    16    10.2   827.5    0.00 
 268   13:10   0.83   61.0    35    5.8     7    10.5   827.5    0.00 
 268   13:20   0.81   61.1    34    6.4     3    10.4   827.5    0.00 
 268   13:30   0.79   60.9    33    6.5    12    12.3   827.5    0.00 
 268   13:40   0.76   61.1    37    7.2     3    12.2   827.5    0.00 
 268   13:50   0.74   61.3    34    5.3     7    10.7   827.6    0.00 

Return to Steptoe Valley North graphs page.


Western Regional Climate Center,wrcc@dri.edu